createdAt,value
2023-03-22T00:01:31.129Z,10.51
2023-03-22T00:04:03.523Z,10.52
2023-03-22T00:07:27.340Z,10.47
2023-03-22T00:10:05.746Z,10.47
2023-03-22T00:16:22.780Z,10.27
2023-03-22T00:19:11.629Z,10.31
2023-03-22T00:21:44.679Z,10.30
2023-03-22T00:25:08.882Z,10.30
2023-03-22T00:27:57.227Z,10.33
2023-03-22T00:30:29.934Z,10.28
2023-03-22T00:33:44.655Z,10.26
2023-03-22T00:36:32.875Z,10.31
2023-03-22T00:39:05.624Z,10.33
2023-03-22T00:41:37.847Z,10.29
2023-03-22T00:44:12.811Z,10.22
2023-03-22T00:47:10.555Z,10.20
2023-03-22T00:49:42.855Z,10.18
2023-03-22T00:52:32.328Z,10.25
2023-03-22T00:55:05.197Z,10.24
2023-03-22T00:57:54.220Z,10.20
2023-03-22T01:00:26.836Z,10.09
2023-03-22T01:03:04.743Z,10.12
2023-03-22T01:05:49.927Z,10.25
2023-03-22T01:11:10.973Z,10.39
2023-03-22T01:14:00.917Z,10.34
2023-03-22T01:16:35.758Z,10.36
2023-03-22T01:19:12.059Z,10.42
2023-03-22T01:21:44.218Z,10.33
2023-03-22T01:24:17.005Z,10.41
2023-03-22T01:26:49.083Z,10.42
2023-03-22T01:29:21.374Z,10.33
2023-03-22T01:31:54.071Z,10.44
2023-03-22T01:35:00.142Z,10.41
2023-03-22T01:37:32.907Z,10.35
2023-03-22T01:40:06.772Z,10.37
2023-03-22T01:42:39.002Z,10.41
2023-03-22T01:45:14.271Z,10.39
2023-03-22T01:47:59.071Z,10.37
2023-03-22T01:50:31.855Z,10.41
2023-03-22T01:53:06.917Z,10.40
2023-03-22T01:55:39.376Z,10.50
2023-03-22T01:58:11.938Z,10.53
2023-03-22T02:00:46.729Z,10.56
2023-03-22T02:03:31.119Z,10.51
2023-03-22T02:06:03.942Z,10.50
2023-03-22T02:08:36.154Z,10.53
2023-03-22T02:11:15.545Z,10.53
2023-03-22T02:14:09.272Z,10.50
2023-03-22T02:17:14.121Z,10.57
2023-03-22T02:20:38.501Z,10.55
2023-03-22T02:24:06.810Z,10.59
2023-03-22T02:27:06.640Z,10.50
2023-03-22T02:29:53.859Z,10.59
2023-03-22T02:32:34.666Z,10.59
2023-03-22T02:35:32.912Z,10.61
2023-03-22T02:38:54.378Z,10.57
2023-03-22T02:41:48.304Z,10.64
2023-03-22T02:44:27.142Z,10.69
2023-03-22T02:47:09.888Z,10.76
2023-03-22T02:49:49.544Z,10.76
2023-03-22T02:52:43.300Z,10.78
2023-03-22T02:55:43.635Z,10.74
2023-03-22T02:58:19.290Z,10.73
2023-03-22T03:01:06.844Z,10.77
2023-03-22T03:03:39.874Z,10.89
2023-03-22T03:06:17.145Z,10.86
2023-03-22T03:08:53.644Z,10.91
2023-03-22T03:11:25.908Z,10.83
2023-03-22T03:13:58.434Z,10.85
2023-03-22T03:16:35.144Z,10.74
2023-03-22T03:19:26.910Z,10.77
2023-03-22T03:22:19.052Z,10.89
2023-03-22T03:25:43.434Z,10.90
2023-03-22T03:28:43.372Z,10.93
2023-03-22T03:31:37.388Z,10.94
2023-03-22T03:34:32.928Z,11.01
2023-03-22T03:37:16.099Z,10.96
2023-03-22T03:40:11.119Z,10.94
2023-03-22T03:42:49.729Z,10.95
2023-03-22T03:45:23.341Z,10.96
2023-03-22T03:48:00.781Z,10.99
2023-03-22T03:50:33.454Z,10.92
2023-03-22T03:53:06.376Z,10.86
2023-03-22T03:55:38.469Z,10.97
2023-03-22T03:58:10.768Z,10.94
2023-03-22T04:00:44.398Z,10.85
2023-03-22T04:03:17.085Z,10.92
2023-03-22T04:05:49.128Z,10.99
2023-03-22T04:08:24.030Z,10.95
2023-03-22T04:10:56.116Z,10.93
2023-03-22T04:13:28.098Z,10.91
2023-03-22T04:16:02.283Z,10.93
2023-03-22T04:18:34.863Z,10.93
2023-03-22T04:21:07.827Z,10.97
2023-03-22T04:23:41.137Z,10.94
2023-03-22T04:26:13.804Z,10.90
2023-03-22T04:28:45.859Z,10.90
2023-03-22T04:31:18.752Z,10.92
2023-03-22T04:33:55.065Z,10.90
2023-03-22T04:36:31.669Z,10.90
2023-03-22T04:39:34.964Z,10.95
2023-03-22T04:42:17.027Z,10.93
2023-03-22T04:44:50.605Z,10.99
2023-03-22T04:52:07.408Z,10.92
2023-03-22T04:54:40.267Z,10.96
2023-03-22T04:57:14.798Z,10.88
2023-03-22T04:59:51.360Z,10.91
2023-03-22T05:02:41.652Z,10.87
2023-03-22T05:05:14.286Z,10.83
2023-03-22T05:07:48.779Z,10.80
2023-03-22T05:10:44.977Z,10.78
2023-03-22T05:13:17.040Z,10.82
2023-03-22T05:15:50.081Z,10.86
2023-03-22T05:18:32.937Z,10.83
2023-03-22T05:21:08.761Z,10.76
2023-03-22T05:23:44.983Z,10.66
2023-03-22T05:26:27.287Z,10.71
2023-03-22T05:29:00.536Z,10.77
2023-03-22T05:35:05.060Z,10.64
2023-03-22T05:37:38.375Z,10.73
2023-03-22T05:40:12.672Z,10.83
2023-03-22T05:42:47.423Z,10.78
2023-03-22T05:45:20.853Z,10.76
2023-03-22T05:47:53.434Z,10.78
2023-03-22T05:50:25.774Z,10.88
2023-03-22T05:52:59.104Z,10.99
2023-03-22T05:55:32.307Z,11.01
2023-03-22T05:58:05.363Z,10.93
2023-03-22T06:00:51.695Z,10.99
2023-03-22T06:03:24.252Z,11.03
2023-03-22T06:05:56.512Z,11.13
2023-03-22T06:08:28.767Z,11.12
2023-03-22T06:11:00.995Z,11.08
2023-03-22T06:13:33.496Z,11.03
2023-03-22T06:16:06.338Z,10.99
2023-03-22T06:18:39.492Z,11.09
2023-03-22T06:23:58.285Z,11.32
2023-03-22T06:26:30.560Z,11.36
2023-03-22T06:29:03.800Z,11.35
2023-03-22T06:31:35.997Z,11.31
2023-03-22T06:34:08.226Z,11.33
2023-03-22T06:36:41.154Z,11.48
2023-03-22T06:39:13.342Z,11.65
2023-03-22T06:41:45.869Z,11.70
2023-03-22T06:44:18.762Z,11.56
2023-03-22T06:46:51.314Z,11.63
2023-03-22T06:49:24.294Z,11.63
2023-03-22T06:51:56.730Z,11.56
2023-03-22T06:54:28.839Z,11.67
2023-03-22T06:57:01.008Z,11.75
2023-03-22T06:59:33.639Z,11.91
2023-03-22T07:02:06.912Z,11.90
2023-03-22T07:04:39.358Z,11.81
2023-03-22T07:07:11.582Z,11.75
2023-03-22T07:09:44.210Z,11.92
2023-03-22T07:12:16.932Z,12.03
2023-03-22T07:14:49.733Z,12.02
2023-03-22T07:17:21.926Z,12.01
2023-03-22T07:19:54.295Z,11.95
2023-03-22T07:22:27.713Z,12.05
2023-03-22T07:25:01.683Z,12.14
2023-03-22T07:27:34.115Z,12.16
2023-03-22T07:30:09.705Z,12.25
2023-03-22T07:32:41.983Z,12.28
2023-03-22T07:35:14.369Z,12.15
2023-03-22T07:37:49.108Z,12.25
2023-03-22T07:40:22.596Z,12.22
2023-03-22T07:42:55.972Z,12.20
2023-03-22T07:45:28.778Z,12.17
2023-03-22T07:48:01.854Z,12.40
2023-03-22T07:50:34.794Z,12.45
2023-03-22T07:53:06.899Z,12.52
2023-03-22T07:55:43.154Z,12.69
2023-03-22T07:58:15.541Z,12.68
2023-03-22T08:00:49.805Z,12.66
2023-03-22T08:03:22.441Z,12.61
2023-03-22T08:05:54.697Z,12.66
2023-03-22T08:08:27.590Z,12.86
2023-03-22T08:10:59.846Z,12.77
2023-03-22T08:13:32.517Z,12.91
2023-03-22T08:16:06.257Z,13.25
2023-03-22T08:18:38.368Z,13.21
2023-03-22T08:21:11.059Z,13.26
2023-03-22T08:23:43.267Z,13.57
2023-03-22T08:26:16.096Z,13.36
2023-03-22T08:28:48.158Z,13.35
2023-03-22T08:31:21.283Z,13.88
2023-03-22T08:33:53.458Z,13.85
2023-03-22T08:36:25.813Z,13.81
2023-03-22T08:38:58.083Z,13.39
2023-03-22T08:41:31.469Z,13.55
2023-03-22T08:44:03.612Z,13.60
2023-03-22T08:46:36.076Z,13.65
2023-03-22T08:49:10.579Z,13.96
2023-03-22T08:51:42.883Z,14.50
2023-03-22T08:54:15.108Z,14.47
2023-03-22T08:56:48.468Z,14.25
2023-03-22T08:59:20.749Z,13.91
2023-03-22T09:01:53.002Z,14.11
2023-03-22T09:04:25.185Z,14.27
2023-03-22T09:06:57.664Z,14.51
2023-03-22T09:09:29.831Z,14.45
2023-03-22T09:12:02.139Z,14.50
2023-03-22T09:14:34.262Z,14.40
2023-03-22T09:17:16.064Z,14.40
2023-03-22T09:19:48.371Z,14.20
2023-03-22T09:22:20.463Z,14.19
2023-03-22T09:24:57.585Z,14.13
2023-03-22T09:27:29.938Z,13.88
2023-03-22T09:30:03.656Z,13.92
2023-03-22T09:32:36.244Z,14.07
2023-03-22T09:35:08.582Z,14.04
2023-03-22T09:37:40.674Z,13.99
2023-03-22T09:40:13.757Z,14.04
2023-03-22T09:42:49.823Z,13.98
2023-03-22T09:45:38.572Z,14.15
2023-03-22T09:48:20.772Z,14.04
2023-03-22T09:50:54.864Z,13.88
2023-03-22T09:53:30.762Z,13.94
2023-03-22T09:56:24.994Z,13.92
2023-03-22T09:59:30.195Z,13.72
2023-03-22T10:02:47.473Z,13.71
2023-03-22T10:05:30.481Z,13.78
2023-03-22T10:08:37.424Z,13.84
2023-03-22T10:11:32.348Z,13.81
2023-03-22T10:14:36.662Z,13.52
2023-03-22T10:17:19.091Z,13.61
2023-03-22T10:20:09.667Z,13.71
2023-03-22T10:22:44.946Z,13.89
2023-03-22T10:25:22.878Z,14.12
2023-03-22T10:27:56.012Z,14.26
2023-03-22T10:30:37.889Z,14.17
2023-03-22T10:33:50.606Z,14.67
2023-03-22T10:36:27.835Z,14.87
2023-03-22T10:39:16.868Z,14.50
2023-03-22T10:41:50.072Z,14.40
2023-03-22T10:44:51.472Z,14.68
2023-03-22T10:48:29.191Z,14.84
2023-03-22T10:51:02.390Z,14.64
2023-03-22T10:53:51.087Z,14.58
2023-03-22T10:56:23.191Z,14.42
2023-03-22T10:59:11.485Z,14.19
2023-03-22T11:03:08.868Z,14.44
2023-03-22T11:05:47.415Z,14.34
2023-03-22T11:12:01.036Z,14.71
2023-03-22T11:25:28.635Z,14.74
2023-03-22T11:28:26.311Z,14.68
2023-03-22T11:31:08.638Z,14.54
2023-03-22T11:34:00.143Z,14.62
2023-03-22T11:40:19.627Z,14.27
2023-03-22T11:46:24.075Z,14.62
2023-03-22T11:49:09.534Z,14.51
2023-03-22T11:51:42.956Z,14.53
2023-03-22T11:54:39.289Z,14.22
2023-03-22T11:57:17.462Z,14.14
2023-03-22T12:00:02.268Z,14.25
2023-03-22T12:03:01.108Z,14.43
2023-03-22T12:05:37.889Z,14.53
2023-03-22T12:08:56.535Z,14.15
2023-03-22T12:12:26.659Z,13.86
2023-03-22T12:16:59.699Z,13.52
2023-03-22T12:31:43.852Z,12.53
2023-03-22T12:34:20.276Z,12.48
2023-03-22T12:36:59.226Z,12.45
2023-03-22T12:39:53.958Z,12.33
2023-03-22T12:42:50.389Z,12.24
2023-03-22T12:45:43.947Z,12.14
2023-03-22T12:48:43.411Z,12.09
2023-03-22T12:54:27.975Z,11.84
2023-03-22T12:57:04.105Z,11.93
2023-03-22T13:00:19.267Z,11.97
2023-03-22T13:03:32.935Z,12.03
2023-03-22T13:09:30.635Z,12.33
2023-03-22T13:12:22.189Z,12.45
2023-03-22T13:15:34.794Z,12.55
2023-03-22T13:21:32.691Z,12.70
2023-03-22T13:24:32.636Z,12.93
2023-03-22T13:27:16.520Z,13.11
2023-03-22T13:30:06.510Z,13.26
2023-03-22T13:33:03.907Z,13.23
2023-03-22T13:38:35.122Z,13.17
2023-03-22T13:41:41.592Z,13.16
2023-03-22T13:44:47.774Z,13.12
2023-03-22T13:47:59.058Z,13.07
2023-03-22T13:50:42.686Z,13.14
2023-03-22T13:57:06.772Z,13.11
2023-03-22T14:00:52.532Z,13.00
2023-03-22T14:07:45.192Z,13.07
2023-03-22T14:11:29.760Z,13.10
2023-03-22T14:15:12.943Z,13.22
2023-03-22T14:18:28.129Z,13.17
2023-03-22T14:52:34.867Z,13.09
2023-03-22T14:55:20.179Z,13.09
2023-03-22T14:58:01.568Z,13.09
2023-03-22T15:01:09.278Z,13.06
2023-03-22T15:03:41.645Z,13.00
2023-03-22T15:06:30.899Z,13.08
2023-03-22T15:09:12.664Z,12.82
2023-03-22T15:12:09.092Z,12.81
2023-03-22T15:14:54.043Z,12.85
2023-03-22T15:20:31.737Z,12.96
2023-03-22T15:24:14.199Z,12.84
2023-03-22T15:27:17.100Z,12.75
2023-03-22T15:29:50.329Z,12.72
2023-03-22T15:32:31.829Z,12.82
2023-03-22T15:35:08.401Z,12.91
2023-03-22T15:37:54.956Z,12.91
2023-03-22T15:40:49.790Z,13.09
2023-03-22T15:47:10.610Z,12.93
2023-03-22T15:50:04.662Z,12.82
2023-03-22T15:53:22.912Z,12.61
2023-03-22T15:55:55.827Z,12.65
2023-03-22T15:59:42.781Z,12.68
2023-03-22T16:05:44.184Z,12.83
2023-03-22T16:08:16.850Z,12.97
2023-03-22T16:10:49.458Z,13.05
2023-03-22T16:13:25.764Z,12.82
2023-03-22T16:19:31.032Z,12.85
2023-03-22T16:22:03.207Z,12.92
2023-03-22T16:24:40.333Z,12.81
2023-03-22T16:27:16.412Z,12.82
2023-03-22T16:29:51.495Z,12.81
2023-03-22T16:32:33.868Z,12.77
2023-03-22T16:35:32.302Z,12.77
2023-03-22T16:38:04.769Z,12.74
2023-03-22T16:40:52.764Z,12.66
2023-03-22T16:43:28.320Z,12.67
2023-03-22T16:46:04.499Z,12.75
2023-03-22T16:48:46.997Z,12.66
2023-03-22T16:51:28.643Z,12.74
2023-03-22T16:54:00.949Z,12.77
2023-03-22T16:56:39.494Z,12.84
2023-03-22T16:59:11.781Z,12.66
2023-03-22T17:01:46.817Z,12.72
2023-03-22T17:04:19.173Z,12.84
2023-03-22T17:07:26.866Z,12.91
2023-03-22T17:10:01.006Z,12.88
2023-03-22T17:12:46.998Z,12.65
2023-03-22T17:15:41.887Z,12.61
2023-03-22T17:50:50.115Z,12.31
2023-03-22T17:54:00.541Z,12.17
2023-03-22T18:08:25.978Z,12.14
2023-03-22T18:14:26.994Z,12.17
2023-03-22T18:17:03.587Z,12.10
2023-03-22T18:22:20.392Z,12.22
2023-03-22T18:25:01.538Z,12.28
2023-03-22T18:28:13.006Z,12.30
2023-03-22T18:30:52.556Z,12.22
2023-03-22T18:33:46.999Z,12.29
2023-03-22T18:36:29.612Z,12.19
2023-03-22T18:39:56.250Z,12.25
2023-03-22T18:42:20.650Z,12.22
2023-03-22T18:48:48.085Z,12.32
2023-03-22T18:55:35.951Z,12.20
2023-03-22T18:58:09.070Z,12.36
2023-03-22T19:00:55.623Z,12.27
2023-03-22T19:04:04.433Z,12.36
2023-03-22T19:07:00.908Z,12.45
2023-03-22T19:17:46.421Z,12.48
2023-03-22T19:24:44.129Z,12.49
2023-03-22T19:28:30.063Z,12.54
2023-03-22T19:34:07.419Z,12.37
2023-03-22T19:36:49.180Z,12.35
2023-03-22T19:47:25.910Z,12.52
2023-03-22T19:50:26.488Z,12.58
2023-03-22T19:57:21.488Z,12.60
2023-03-22T20:00:28.408Z,12.62
2023-03-22T20:02:45.893Z,12.64
2023-03-22T20:05:21.060Z,12.58
2023-03-22T20:07:54.636Z,12.66
2023-03-22T20:10:29.810Z,12.65
2023-03-22T20:13:11.438Z,12.68
2023-03-22T20:16:04.535Z,12.60
2023-03-22T20:22:44.007Z,12.48
2023-03-22T20:28:12.905Z,12.25
2023-03-22T20:30:47.821Z,12.26
2023-03-22T20:33:25.635Z,12.19
2023-03-22T20:39:29.237Z,12.20
2023-03-22T20:42:19.318Z,12.17
2023-03-22T20:49:02.232Z,12.36
2023-03-22T20:56:57.559Z,12.43
2023-03-22T20:59:30.727Z,12.52
2023-03-22T21:02:05.908Z,12.46
2023-03-22T21:04:38.270Z,12.42
2023-03-22T21:07:17.335Z,12.30
2023-03-22T21:10:00.888Z,12.12
2023-03-22T21:12:46.493Z,11.97
2023-03-22T21:15:18.652Z,11.95
2023-03-22T21:17:59.524Z,11.95
2023-03-22T21:20:32.825Z,11.99
2023-03-22T21:23:22.301Z,11.99
2023-03-22T21:30:06.231Z,11.96
2023-03-22T21:35:53.435Z,11.99
2023-03-22T21:36:36.546Z,12.13
2023-03-22T21:47:56.469Z,12.35
2023-03-22T21:54:22.353Z,12.18
2023-03-22T21:56:57.655Z,12.07
2023-03-22T21:59:30.142Z,11.78
2023-03-22T22:02:02.918Z,11.66
2023-03-22T22:04:35.093Z,11.52
2023-03-22T22:07:07.823Z,11.40
2023-03-22T22:09:41.903Z,11.31
2023-03-22T22:12:14.635Z,11.22
2023-03-22T22:14:46.818Z,11.17
2023-03-22T22:17:18.951Z,11.10
2023-03-22T22:19:51.340Z,11.16
2023-03-22T22:22:23.444Z,11.15
2023-03-22T22:24:55.477Z,11.17
2023-03-22T22:27:27.633Z,11.12
2023-03-22T22:29:59.923Z,11.17
2023-03-22T22:32:36.689Z,11.15
2023-03-22T22:35:11.137Z,11.17
2023-03-22T22:37:43.330Z,11.18
2023-03-22T22:40:16.558Z,11.29
2023-03-22T22:42:48.688Z,11.18
2023-03-22T22:45:21.126Z,11.06
2023-03-22T22:47:53.865Z,11.05
2023-03-22T22:50:25.973Z,10.99
2023-03-22T22:52:58.475Z,10.96
2023-03-22T22:55:31.038Z,10.93
2023-03-22T22:58:04.117Z,10.93
2023-03-22T23:00:36.453Z,10.92
2023-03-22T23:03:08.723Z,10.87
2023-03-22T23:05:41.739Z,10.87
2023-03-22T23:08:14.220Z,10.95
2023-03-22T23:10:53.269Z,11.04
2023-03-22T23:13:27.715Z,11.03
2023-03-22T23:16:03.356Z,11.06
2023-03-22T23:18:36.899Z,11.01
2023-03-22T23:21:15.144Z,11.10
2023-03-22T23:23:50.016Z,11.09
2023-03-22T23:26:22.997Z,10.98
2023-03-22T23:28:59.343Z,11.04
2023-03-22T23:31:32.106Z,11.14
2023-03-22T23:34:04.429Z,11.06
2023-03-22T23:36:36.973Z,11.11
2023-03-22T23:39:09.173Z,11.11
2023-03-22T23:41:41.484Z,11.15
2023-03-22T23:44:16.212Z,11.26
2023-03-22T23:46:48.517Z,11.23
2023-03-22T23:49:20.891Z,11.18
2023-03-22T23:51:53.199Z,11.04
2023-03-22T23:54:25.895Z,11.01
2023-03-22T23:56:58.023Z,10.97
2023-03-22T23:59:30.615Z,10.98
